Time;durP1;ratioP1;P1;durP2;ratioP2;P2;SDS_P1;SDS_P2;PMS_P1;PMS_P2;Temp;Humidity;BMP_temperature;BMP_pressure;BME280_temperature;BME280_humidity;BME280_pressure;Samples;Min_cycle;Max_cycle;Signal;HPM_P1;HPM_P2
2023/07/04 00:03:56;;;;;;;13.55;8.35;;;21.10;88.40;;;19.82;81.08;99926.50;12343247;23;96408;-89
2023/07/04 00:08:59;;;;;;;12.60;7.88;;;20.90;89.90;;;19.64;84.30;99922.03;12344621;23;96686;-88
2023/07/04 00:14:03;;;;;;;11.45;7.13;;;20.80;90.70;;;19.49;87.43;99925.13;12320061;23;96439;-87
2023/07/04 00:19:07;;;;;;;12.65;7.72;;;20.60;91.40;;;19.33;91.57;99928.53;12343725;23;96820;-88
2023/07/04 00:24:11;;;;;;;11.52;8.43;;;20.40;92.40;;;19.12;92.18;99935.28;12343952;23;96585;-88
2023/07/04 00:29:15;;;;;;;11.27;8.80;;;20.20;92.90;;;19.02;93.36;99943.09;12344708;23;96406;-88
2023/07/04 00:34:20;;;;;;;11.18;7.53;;;20.10;93.50;;;18.96;94.56;99940.28;12367933;23;96406;-87
2023/07/04 00:39:24;;;;;;;11.52;7.95;;;20.00;94.10;;;18.97;96.63;99955.38;12344384;23;96801;-87
2023/07/04 00:44:30;;;;;;;12.82;8.02;;;20.00;95.00;;;18.93;99.10;99940.72;12371599;23;96411;-87
2023/07/04 00:49:43;;;;;;;11.20;7.68;;;20.00;95.80;;;18.96;100.00;99948.34;12322099;23;96842;-88
2023/07/04 00:54:53;;;;;;;10.32;7.38;;;20.00;96.60;;;18.93;100.00;99943.41;12344581;23;96490;-88
2023/07/04 00:59:58;;;;;;;11.70;8.00;;;20.00;97.30;;;18.93;100.00;99947.97;12339713;23;96487;-88
2023/07/04 01:05:06;;;;;;;9.60;7.35;;;20.00;97.90;;;18.87;100.00;99933.56;12336772;23;96571;-87
2023/07/04 01:10:23;;;;;;;9.52;7.25;;;20.00;98.40;;;18.87;100.00;99938.13;12321502;23;96464;-88
2023/07/04 01:15:30;;;;;;;11.00;7.05;;;20.00;98.80;;;18.84;100.00;99923.25;12343920;23;96437;-88
2023/07/04 01:20:34;;;;;;;11.25;6.72;;;19.90;99.20;;;18.79;100.00;99930.38;12343713;23;96416;-87
2023/07/04 01:26:02;;;;;;;8.45;6.57;;;19.80;99.70;;;18.73;100.00;99921.34;12343740;23;96539;-87
2023/07/04 01:31:07;;;;;;;9.65;6.32;;;19.80;99.90;;;18.67;100.00;99911.47;12320672;23;96484;-87
2023/07/04 01:36:11;;;;;;;8.85;6.30;;;19.70;99.90;;;18.63;100.00;99923.72;12347628;23;96495;-87
2023/07/04 01:41:15;;;;;;;8.65;6.85;;;19.70;99.90;;;18.52;100.00;99937.91;12343632;23;96468;-88
2023/07/04 01:46:19;;;;;;;7.43;6.50;;;19.60;99.90;;;18.40;100.00;99948.63;12342782;23;96982;-87
2023/07/04 01:51:28;;;;;;;8.05;6.38;;;19.50;99.90;;;18.35;100.00;99935.88;12342376;23;97032;-87
2023/07/04 01:56:34;;;;;;;7.93;6.15;;;19.50;99.90;;;18.40;100.00;99932.47;12341557;23;96548;-88
2023/07/04 02:01:37;;;;;;;8.77;5.88;;;19.50;99.90;;;18.34;100.00;99933.38;12320609;23;96601;-88
2023/07/04 02:06:42;;;;;;;8.75;5.22;;;19.50;99.90;;;18.24;100.00;99933.91;12319932;23;96601;-88
2023/07/04 02:11:46;;;;;;;7.38;5.22;;;19.40;99.90;;;18.27;100.00;99954.16;12319585;23;96547;-87
2023/07/04 02:16:52;;;;;;;7.22;4.97;;;19.30;99.90;;;18.30;100.00;99969.84;12341975;23;96501;-88
2023/07/04 02:21:55;;;;;;;9.15;5.25;;;19.40;99.90;;;18.34;100.00;99966.47;12343417;23;96605;-88
2023/07/04 02:27:00;;;;;;;7.85;5.50;;;19.40;99.90;;;18.32;100.00;99967.75;12342764;23;96570;-87
2023/07/04 02:32:04;;;;;;;9.65;6.07;;;19.40;99.90;;;18.36;100.00;99980.53;12343756;23;96461;-87
2023/07/04 02:37:10;;;;;;;8.18;6.43;;;19.40;99.90;;;18.31;100.00;99988.47;12342255;23;97077;-88
2023/07/04 02:42:13;;;;;;;8.05;5.88;;;19.40;99.90;;;18.35;100.00;100007.66;12346168;23;97051;-88
2023/07/04 02:47:18;;;;;;;8.65;6.18;;;19.30;99.90;;;18.31;100.00;100009.97;12323286;23;96580;-88
2023/07/04 02:52:23;;;;;;;10.75;5.80;;;19.30;99.90;;;18.25;100.00;100016.25;12318475;23;96552;-87
2023/07/04 02:57:27;;;;;;;9.50;5.80;;;19.20;99.90;;;18.31;100.00;100018.03;12342415;23;96659;-88
2023/07/04 03:02:30;;;;;;;8.32;6.45;;;19.30;99.90;;;18.40;100.00;100024.75;12318492;23;96884;-88
2023/07/04 03:07:34;;;;;;;10.02;6.93;;;19.40;99.90;;;18.41;100.00;100018.38;12318066;23;96936;-88
2023/07/04 03:12:38;;;;;;;11.45;7.22;;;19.40;99.90;;;18.26;100.00;100004.44;12342064;23;96433;-88
2023/07/04 03:17:42;;;;;;;10.00;7.53;;;19.30;99.90;;;18.25;100.00;100010.88;12342194;23;96654;-88
2023/07/04 03:22:45;;;;;;;13.50;8.27;;;19.20;99.90;;;18.25;100.00;100015.44;12346985;23;96816;-88
2023/07/04 03:27:49;;;;;;;10.50;7.63;;;19.20;99.90;;;18.24;100.00;100030.75;12344010;23;96805;-88
2023/07/04 03:32:53;;;;;;;11.15;7.80;;;19.20;99.90;;;18.16;100.00;100033.69;12343512;23;97049;-88
2023/07/04 03:37:57;;;;;;;13.50;8.38;;;19.10;99.90;;;18.05;100.00;100032.56;12342661;23;96472;-88
2023/07/04 03:43:00;;;;;;;11.43;8.25;;;19.00;99.90;;;17.95;100.00;100032.25;12321541;23;96622;-87
2023/07/04 03:48:04;;;;;;;13.60;8.25;;;18.90;99.90;;;17.80;100.00;100021.00;12343604;23;96615;-87
2023/07/04 03:53:09;;;;;;;11.63;8.13;;;18.70;99.90;;;17.71;100.00;100019.59;12345647;23;97465;-87
2023/07/04 03:58:12;;;;;;;14.88;9.18;;;18.60;99.90;;;17.64;100.00;100022.34;12320845;23;96517;-88
2023/07/04 04:03:16;;;;;;;13.80;8.50;;;18.60;99.90;;;17.52;100.00;100024.06;12366567;23;96857;-88
2023/07/04 04:08:20;;;;;;;11.43;8.00;;;18.50;99.90;;;17.42;100.00;100027.22;12343654;23;96463;-88
2023/07/04 04:13:24;;;;;;;10.27;7.78;;;18.40;99.90;;;17.34;100.00;100025.63;12342950;23;96873;-87
2023/07/04 04:18:28;;;;;;;12.35;8.50;;;18.40;99.90;;;17.24;100.00;100019.91;12321214;23;96686;-87
2023/07/04 04:23:32;;;;;;;11.68;8.65;;;18.30;99.90;;;17.21;100.00;100024.88;12343365;23;96722;-88
2023/07/04 04:28:36;;;;;;;10.60;8.07;;;18.30;99.90;;;17.18;100.00;100034.19;12340491;23;96818;-88
2023/07/04 04:33:40;;;;;;;11.73;7.65;;;18.20;99.90;;;17.11;100.00;100019.97;12317839;23;96605;-87
2023/07/04 04:38:44;;;;;;;11.65;9.23;;;18.20;99.90;;;17.16;100.00;100036.28;12344696;23;97595;-88
2023/07/04 04:43:50;;;;;;;14.77;9.32;;;18.20;99.90;;;17.24;100.00;100057.50;12342772;23;96834;-87
2023/07/04 04:48:53;;;;;;;11.35;8.15;;;18.30;99.90;;;17.33;100.00;100055.38;12343562;23;97680;-88
2023/07/04 04:53:57;;;;;;;12.65;8.13;;;18.40;99.90;;;17.42;100.00;100053.28;12319082;23;96439;-89
2023/07/04 04:59:01;;;;;;;10.13;7.55;;;18.50;99.90;;;17.51;100.00;100049.28;12342892;23;96799;-89
2023/07/04 05:04:04;;;;;;;11.88;7.20;;;18.60;99.90;;;17.51;100.00;100051.97;12318798;23;96822;-87
2023/07/04 05:09:08;;;;;;;12.05;8.38;;;18.60;99.90;;;17.58;100.00;100056.28;12319441;23;97419;-87
2023/07/04 05:14:12;;;;;;;12.50;8.63;;;18.60;99.90;;;17.59;100.00;100057.91;12319207;23;96829;-87
2023/07/04 05:19:15;;;;;;;12.98;8.43;;;18.60;99.90;;;17.66;100.00;100071.31;12338088;23;96758;-87
2023/07/04 05:24:19;;;;;;;10.65;7.70;;;18.70;99.90;;;17.71;100.00;100090.28;12365260;23;96851;-86
2023/07/04 05:29:23;;;;;;;13.98;7.43;;;18.70;99.90;;;17.76;100.00;100098.56;12342443;23;97065;-87
2023/07/04 05:34:26;;;;;;;9.82;7.07;;;18.80;99.90;;;17.83;100.00;100107.41;12341651;23;96749;-87
2023/07/04 05:39:31;;;;;;;11.73;7.20;;;18.90;99.90;;;17.84;100.00;100100.16;12319424;23;96520;-87
2023/07/04 05:44:35;;;;;;;14.15;9.50;;;18.90;99.90;;;17.84;100.00;100092.91;12342099;23;96851;-88
2023/07/04 05:49:39;;;;;;;14.10;9.98;;;19.00;99.90;;;18.00;100.00;100110.38;12347605;23;97419;-88
2023/07/04 05:54:42;;;;;;;13.55;10.02;;;19.10;99.90;;;18.07;100.00;100111.16;12298263;23;96479;-87
2023/07/04 05:59:45;;;;;;;13.60;10.43;;;19.10;99.90;;;18.09;100.00;100100.16;12365327;23;96796;-88
2023/07/04 06:04:49;;;;;;;15.60;10.50;;;19.20;99.90;;;18.25;100.00;100106.88;12363982;23;96879;-88
2023/07/04 06:09:52;;;;;;;14.15;10.27;;;19.40;99.90;;;18.33;100.00;100115.47;12374661;23;96519;-86
2023/07/04 06:14:56;;;;;;;13.60;9.38;;;19.50;99.90;;;18.41;100.00;100104.44;12367661;23;96740;-88
2023/07/04 06:20:00;;;;;;;7.72;6.90;;;19.50;99.90;;;18.44;100.00;100120.13;12320227;23;96448;-88
2023/07/04 06:25:04;;;;;;;9.05;6.85;;;19.50;99.90;;;18.35;100.00;100110.72;12342433;23;96616;-87
2023/07/04 06:30:10;;;;;;;8.23;5.95;;;19.50;99.90;;;18.31;100.00;100120.25;12364750;23;96474;-88
2023/07/04 06:35:14;;;;;;;9.85;6.50;;;19.40;99.90;;;18.31;100.00;100128.34;12319737;23;96610;-87
2023/07/04 06:40:18;;;;;;;9.38;6.53;;;19.40;99.90;;;18.34;100.00;100127.06;12346263;23;96498;-86
2023/07/04 06:45:22;;;;;;;8.45;6.57;;;19.40;99.90;;;18.32;100.00;100129.97;12343656;23;96551;-87
2023/07/04 06:50:28;;;;;;;11.70;6.88;;;19.40;99.90;;;18.28;100.00;100144.91;12341156;23;96546;-87
2023/07/04 06:55:32;;;;;;;10.70;5.88;;;19.30;99.90;;;18.27;100.00;100143.25;12343875;23;96663;-88
2023/07/04 07:00:36;;;;;;;9.60;6.90;;;19.30;99.90;;;18.26;100.00;100144.31;12341809;23;96728;-88
2023/07/04 07:05:41;;;;;;;10.70;6.78;;;19.30;99.90;;;18.26;100.00;100146.16;12343631;23;96584;-88
2023/07/04 07:11:04;;;;;;;8.85;6.50;;;19.30;99.90;;;18.24;100.00;100132.94;12338483;23;97461;-88
2023/07/04 07:16:12;;;;;;;10.20;7.40;;;19.30;99.90;;;18.27;100.00;100137.88;12342676;23;97565;-88
2023/07/04 07:21:21;;;;;;;10.95;6.85;;;19.30;99.90;;;18.22;100.00;100132.31;12367467;23;96675;-88
2023/07/04 07:26:27;;;;;;;8.30;6.47;;;19.20;99.90;;;18.23;100.00;100130.47;12366908;23;97030;-88
2023/07/04 07:31:31;;;;;;;10.82;7.10;;;19.20;99.90;;;18.28;100.00;100144.91;12346067;23;96550;-88
2023/07/04 07:36:41;;;;;;;10.10;6.82;;;19.30;99.90;;;18.30;100.00;100142.00;12343651;23;96759;-88
2023/07/04 07:41:47;;;;;;;8.95;6.32;;;19.40;99.90;;;18.31;100.00;100136.41;12344069;23;96482;-87
2023/07/04 07:46:51;;;;;;;8.48;6.28;;;19.40;99.90;;;18.28;100.00;100139.50;12341155;23;96675;-88
2023/07/04 07:51:55;;;;;;;7.97;6.25;;;19.40;99.90;;;18.28;100.00;100138.69;12341698;23;96712;-87
2023/07/04 07:56:58;;;;;;;8.32;6.65;;;19.40;99.90;;;18.37;100.00;100138.22;12343258;23;96813;-87
2023/07/04 08:02:03;;;;;;;8.18;6.47;;;19.40;99.90;;;18.38;100.00;100139.03;12319888;23;96631;-88
2023/07/04 08:07:09;;;;;;;11.40;6.55;;;19.50;99.90;;;18.39;100.00;100152.25;12343802;23;96450;-88
2023/07/04 08:12:13;;;;;;;7.50;5.88;;;19.50;99.90;;;18.43;100.00;100160.72;12343314;23;97755;-88
2023/07/04 08:17:16;;;;;;;10.40;7.05;;;19.50;99.90;;;18.50;100.00;100147.22;12342806;23;96521;-88
2023/07/04 08:22:20;;;;;;;9.18;6.68;;;19.60;99.90;;;18.59;100.00;100143.19;12347375;23;96779;-88
2023/07/04 08:27:25;;;;;;;10.02;6.75;;;19.70;99.90;;;18.73;100.00;100144.75;12345074;23;96652;-88
2023/07/04 08:32:29;;;;;;;7.72;6.07;;;19.80;99.90;;;18.83;100.00;100146.91;12343082;23;97098;-88
2023/07/04 08:37:33;;;;;;;7.82;5.40;;;19.90;99.90;;;18.89;100.00;100148.69;12343511;23;97041;-87
2023/07/04 08:42:39;;;;;;;8.38;5.88;;;20.00;99.90;;;18.88;100.00;100145.19;12342778;23;96595;-88
2023/07/04 08:47:42;;;;;;;8.25;5.80;;;20.00;99.90;;;18.92;100.00;100143.72;12320829;23;96855;-87
2023/07/04 08:52:54;;;;;;;7.65;5.65;;;20.10;99.90;;;18.93;100.00;100148.03;12343068;23;96532;-87
2023/07/04 08:58:04;;;;;;;8.32;5.43;;;20.10;99.90;;;18.94;100.00;100149.69;12343724;23;96649;-87
2023/07/04 09:03:18;;;;;;;9.35;5.47;;;20.10;99.90;;;18.97;100.00;100162.72;12342927;23;96512;-87
2023/07/04 09:08:32;;;;;;;9.02;6.07;;;20.20;99.90;;;18.99;100.00;100170.56;12366821;23;97033;-87
2023/07/04 09:13:46;;;;;;;8.35;6.00;;;20.10;99.90;;;19.02;100.00;100172.00;12342625;23;96618;-87
2023/07/04 09:19:00;;;;;;;9.20;5.82;;;20.20;99.90;;;19.07;100.00;100169.44;12327527;23;96659;-86
2023/07/04 09:24:05;;;;;;;9.80;5.43;;;20.20;99.90;;;19.15;100.00;100169.97;12357240;23;97284;-87
2023/07/04 09:29:10;;;;;;;8.55;5.93;;;20.30;99.90;;;19.18;100.00;100157.91;12345062;23;96345;-87
2023/07/04 09:34:22;;;;;;;9.63;5.65;;;20.30;99.90;;;19.22;100.00;100167.19;12342420;23;96541;-87
2023/07/04 09:39:45;;;;;;;6.90;5.20;;;20.30;99.90;;;19.23;100.00;100182.31;12321308;23;96847;-88
2023/07/04 09:44:54;;;;;;;8.60;5.43;;;20.30;99.90;;;19.31;100.00;100182.03;12345122;23;96744;-88
2023/07/04 09:50:24;;;;;;;9.38;6.18;;;20.30;99.90;;;19.40;100.00;100169.06;12342164;23;96895;-88
2023/07/04 09:55:28;;;;;;;7.13;5.00;;;20.50;99.90;;;19.47;100.00;100167.91;12345990;23;97421;-88
2023/07/04 10:00:32;;;;;;;14.82;7.13;;;20.50;99.90;;;19.47;100.00;100159.84;12343278;23;96930;-88
2023/07/04 10:05:37;;;;;;;7.97;5.28;;;20.60;99.90;;;19.58;100.00;100157.44;12343525;23;96611;-88
2023/07/04 10:10:54;;;;;;;8.55;5.22;;;20.70;99.90;;;19.70;100.00;100152.94;12345742;23;96436;-86
2023/07/04 10:15:58;;;;;;;7.15;4.80;;;20.80;99.90;;;19.77;100.00;100142.88;12321563;23;97402;-88
2023/07/04 10:21:06;;;;;;;6.20;4.18;;;20.90;99.90;;;19.95;100.00;100150.91;12343202;23;96604;-88
2023/07/04 10:26:12;;;;;;;8.50;4.57;;;21.00;99.90;;;20.10;100.00;100141.56;12340796;23;97017;-88
2023/07/04 10:31:21;;;;;;;11.85;5.43;;;21.20;99.90;;;20.30;100.00;100153.69;12364107;23;96987;-88
2023/07/04 10:36:33;;;;;;;7.57;3.90;;;21.40;99.90;;;20.44;100.00;100129.97;12322598;23;97022;-88
2023/07/04 10:41:39;;;;;;;5.45;3.83;;;21.60;99.90;;;20.65;100.00;100128.63;12367889;23;97293;-89
2023/07/04 10:47:00;;;;;;;6.20;4.18;;;21.80;99.90;;;20.78;100.00;100122.97;12359001;23;96678;-88
2023/07/04 10:52:25;;;;;;;5.63;3.97;;;22.00;99.90;;;20.93;100.00;100114.38;12344133;23;96734;-88
2023/07/04 10:57:42;;;;;;;6.28;4.70;;;22.10;99.90;;;21.10;100.00;100103.63;12341493;23;96746;-88
2023/07/04 11:03:00;;;;;;;7.90;4.60;;;22.30;99.90;;;21.38;100.00;100111.00;12342260;23;96677;-87
2023/07/04 11:08:15;;;;;;;5.47;3.78;;;22.60;99.90;;;21.79;100.00;100114.47;12342385;23;96598;-88
2023/07/04 11:13:21;;;;;;;5.53;3.80;;;23.00;99.90;;;21.98;100.00;100099.63;12365613;23;97191;-88
2023/07/04 11:18:36;;;;;;;5.78;4.00;;;23.20;99.90;;;22.13;100.00;100096.38;12340923;23;96919;-88
2023/07/04 11:23:46;;;;;;;5.93;4.00;;;23.40;99.90;;;22.32;100.00;100102.38;12343327;23;96508;-88
2023/07/04 11:29:08;;;;;;;7.22;4.32;;;23.60;99.90;;;22.59;98.04;100102.50;12341969;23;97165;-88
2023/07/04 11:34:12;;;;;;;7.30;4.18;;;23.80;99.90;;;22.66;97.96;100090.41;12341362;23;96542;-88
2023/07/04 11:39:21;;;;;;;6.72;3.78;;;24.00;99.90;;;22.89;96.08;100099.41;12342495;23;96477;-88
2023/07/04 11:44:31;;;;;;;5.05;3.60;;;24.10;99.90;;;23.08;96.49;100089.06;12368377;23;96507;-89
2023/07/04 11:49:35;;;;;;;4.22;3.58;;;24.30;99.90;;;23.14;91.71;100091.59;12343885;23;96615;-88
2023/07/04 11:54:39;;;;;;;6.88;4.05;;;24.50;99.90;;;23.31;93.38;100088.81;12344340;23;96383;-88
2023/07/04 11:59:44;;;;;;;6.32;3.85;;;24.60;99.90;;;23.64;94.21;100090.56;12344328;23;96660;-88
2023/07/04 12:04:49;;;;;;;6.05;3.40;;;24.90;99.90;;;23.77;89.63;100086.59;12342603;23;96602;-88
2023/07/04 12:10:16;;;;;;;6.18;3.60;;;25.00;99.90;;;23.79;87.22;100081.72;12343216;23;96626;-88
2023/07/04 12:15:30;;;;;;;4.70;3.40;;;25.10;99.90;;;23.68;84.69;100074.56;12343851;23;96903;-88
2023/07/04 12:20:36;;;;;;;6.28;3.38;;;25.00;99.90;;;23.61;84.65;100071.22;12344950;23;97232;-86
2023/07/04 12:25:48;;;;;;;5.15;3.53;;;24.90;99.90;;;23.45;84.70;100068.38;12345129;23;96731;-86
2023/07/04 12:31:04;;;;;;;6.30;3.70;;;24.80;99.90;;;23.39;85.10;100065.84;12343375;23;96463;-87
2023/07/04 12:36:15;;;;;;;4.80;3.53;;;24.70;99.90;;;23.33;85.09;100061.44;12346051;23;96504;-87
2023/07/04 12:41:27;;;;;;;4.95;3.55;;;24.60;99.90;;;23.31;83.61;100064.41;12326445;23;96476;-87
2023/07/04 12:46:35;;;;;;;5.15;3.88;;;24.50;99.90;;;23.22;84.87;100060.53;12346376;23;96518;-87
2023/07/04 12:51:45;;;;;;;8.07;3.63;;;24.40;99.90;;;23.03;83.44;100041.06;12344570;23;96533;-87
2023/07/04 12:56:48;;;;;;;5.20;3.85;;;24.30;99.90;;;22.96;84.06;100043.97;12344361;23;97430;-87
2023/07/04 13:01:52;;;;;;;4.65;3.20;;;24.30;99.90;;;23.00;84.48;100057.00;12341929;23;96438;-87
2023/07/04 13:06:56;;;;;;;4.72;3.28;;;24.20;99.90;;;22.95;83.73;100055.06;12343590;23;97049;-88
2023/07/04 13:12:00;;;;;;;4.70;3.55;;;24.20;99.90;;;22.93;83.89;100049.06;12343806;23;96457;-88
2023/07/04 13:17:11;;;;;;;4.22;3.22;;;24.20;99.90;;;23.00;84.67;100047.00;12320511;23;96491;-87
2023/07/04 13:22:20;;;;;;;4.82;3.42;;;24.30;99.90;;;23.08;83.96;100043.81;12322113;23;96542;-87
2023/07/04 13:27:28;;;;;;;6.45;3.60;;;24.40;99.90;;;23.19;82.87;100061.03;12346114;23;96642;-88
2023/07/04 13:32:42;;;;;;;6.13;3.92;;;24.40;99.90;;;23.22;84.03;100044.25;12344634;23;96340;-87
2023/07/04 13:37:48;;;;;;;5.65;4.00;;;24.40;99.90;;;23.48;85.18;100045.34;12346394;23;96554;-87
2023/07/04 13:43:14;;;;;;;5.78;4.25;;;24.70;99.90;;;23.77;82.14;100035.88;12344074;23;96612;-87
2023/07/04 13:48:21;;;;;;;7.05;3.72;;;25.00;99.90;;;24.14;82.99;100031.53;12343846;23;96788;-87
2023/07/04 13:53:25;;;;;;;4.63;3.53;;;25.30;99.90;;;24.37;80.00;100030.34;12342554;23;96546;-88
2023/07/04 13:58:29;;;;;;;6.88;3.97;;;25.50;99.90;;;24.45;78.20;100021.69;12342090;23;96541;-88
2023/07/04 14:03:34;;;;;;;6.15;3.78;;;25.60;99.90;;;24.75;76.15;100012.88;12343371;23;97028;-88
2023/07/04 14:08:45;;;;;;;6.20;3.63;;;25.90;99.90;;;25.29;76.36;100018.75;12343418;23;96731;-88
2023/07/04 14:13:51;;;;;;;6.22;3.35;;;26.40;99.90;;;25.72;71.76;100011.16;12322482;23;97125;-88
2023/07/04 14:19:04;;;;;;;4.85;3.20;;;26.90;99.90;;;26.11;70.03;99986.94;12352482;23;96706;-88
2023/07/04 14:24:10;;;;;;;4.85;3.10;;;27.30;99.50;;;26.40;67.09;99976.28;12360523;23;96504;-88
2023/07/04 14:29:14;;;;;;;7.18;3.95;;;27.70;98.40;;;26.67;67.17;99970.44;12344116;23;97330;-88
2023/07/04 14:34:21;;;;;;;5.75;3.53;;;28.00;97.70;;;26.88;64.74;99978.53;12342341;23;96508;-90
2023/07/04 14:39:25;;;;;;;6.07;3.70;;;28.20;96.40;;;27.08;65.08;99962.06;12320761;23;96630;-88
2023/07/04 14:44:29;;;;;;;4.30;2.95;;;28.50;95.50;;;27.23;63.25;99963.03;12365055;23;96785;-88
2023/07/04 14:49:34;;;;;;;4.78;3.42;;;28.90;94.70;;;27.31;61.33;99957.00;12343111;23;96449;-89
2023/07/04 14:54:38;;;;;;;4.20;3.17;;;29.30;93.20;;;27.50;58.63;99946.19;12345180;23;96461;-90
2023/07/04 14:59:42;;;;;;;5.05;2.97;;;29.70;91.60;;;27.92;58.58;99953.75;12342669;23;96495;-90
2023/07/04 15:04:46;;;;;;;4.70;3.40;;;30.10;90.90;;;28.25;57.72;99941.13;12342109;23;96512;-89
2023/07/04 15:09:49;;;;;;;6.50;3.40;;;30.50;89.50;;;28.68;55.32;99930.22;12341381;23;96423;-89
2023/07/04 15:14:53;;;;;;;4.35;3.40;;;30.80;87.30;;;29.01;53.47;99929.19;12321325;23;96963;-88
2023/07/04 15:19:56;;;;;;;6.07;3.22;;;30.90;85.10;;;29.30;53.64;99925.47;12324000;23;96516;-89
2023/07/04 15:25:00;;;;;;;7.82;4.07;;;30.90;85.30;;;29.53;52.22;99921.00;12324981;23;96591;-88
2023/07/04 15:30:05;;;;;;;4.55;3.13;;;31.10;82.90;;;29.52;51.46;99922.13;12369064;23;96475;-88
2023/07/04 15:35:08;;;;;;;6.28;3.45;;;31.30;81.30;;;29.74;51.01;99921.44;12349138;23;96893;-89
2023/07/04 15:40:15;;;;;;;6.55;3.60;;;31.60;80.50;;;30.17;49.19;99912.97;12323385;23;96373;-89
2023/07/04 15:45:21;;;;;;;4.60;3.45;;;32.20;78.10;;;30.38;47.90;99915.00;12345852;23;97155;-89
2023/07/04 15:50:25;;;;;;;5.03;3.70;;;32.40;76.20;;;30.48;47.20;99908.50;12344591;23;96526;-89
2023/07/04 15:55:30;;;;;;;3.80;3.13;;;32.40;74.90;;;30.48;45.74;99907.69;12342400;23;96877;-89
2023/07/04 16:00:36;;;;;;;4.63;3.20;;;32.50;72.10;;;30.57;44.45;99903.91;12343866;23;96399;-89
2023/07/04 16:05:44;;;;;;;4.47;2.65;;;32.50;69.80;;;30.44;43.77;99904.75;12344054;23;96465;-90
2023/07/04 16:10:57;;;;;;;5.28;3.55;;;32.20;70.00;;;30.46;45.25;99910.72;12345399;23;97428;-90
2023/07/04 16:16:01;;;;;;;6.88;4.20;;;32.10;70.70;;;30.46;45.41;99902.50;12344728;23;96721;-89
2023/07/04 16:21:05;;;;;;;5.30;3.75;;;32.00;69.90;;;30.30;46.05;99909.44;12345223;23;96538;-89
2023/07/04 16:26:09;;;;;;;5.00;3.15;;;31.70;70.20;;;29.99;46.18;99907.28;12342432;23;96696;-90
2023/07/04 16:31:15;;;;;;;6.65;3.80;;;31.20;70.20;;;29.56;46.71;99903.97;12345218;23;97160;-89
2023/07/04 16:36:19;;;;;;;6.15;4.20;;;30.80;70.70;;;29.18;47.79;99901.31;12322538;23;96466;-89
2023/07/04 16:41:23;;;;;;;7.57;5.68;;;30.50;71.40;;;28.79;47.78;99896.16;12343507;23;96369;-88
2023/07/04 16:46:27;;;;;;;6.25;4.72;;;30.10;71.70;;;28.41;49.47;99896.09;12314857;23;96510;-87
2023/07/04 16:51:31;;;;;;;6.13;5.05;;;29.70;72.60;;;28.26;50.84;99883.44;12340905;23;96762;-88
2023/07/04 16:56:40;;;;;;;6.45;3.83;;;29.60;73.60;;;28.24;50.75;99884.81;12345337;23;96463;-87
2023/07/04 17:01:44;;;;;;;4.70;3.53;;;29.60;73.80;;;28.22;50.86;99887.03;12353264;23;96461;-88
2023/07/04 17:06:48;;;;;;;6.40;3.90;;;29.60;74.40;;;28.28;52.23;99883.13;12344446;23;96426;-88
2023/07/04 17:11:52;;;;;;;6.43;4.28;;;29.70;75.30;;;28.37;52.12;99878.69;12343957;23;96572;-88
2023/07/04 17:16:56;;;;;;;6.22;4.22;;;29.80;75.20;;;28.19;52.01;99888.44;12343423;23;97165;-88
2023/07/04 17:21:59;;;;;;;6.43;3.88;;;29.60;74.00;;;27.84;51.72;99886.13;12343123;23;96425;-88
2023/07/04 17:27:03;;;;;;;8.00;4.43;;;29.30;74.40;;;27.51;53.72;99887.78;12339757;23;96435;-88
2023/07/04 17:32:09;;;;;;;5.40;4.20;;;29.00;76.80;;;27.14;55.87;99891.94;12343007;23;96483;-88
2023/07/04 17:37:12;;;;;;;5.78;3.75;;;28.50;77.20;;;26.63;56.65;99882.16;12343309;23;96929;-88
2023/07/04 17:42:16;;;;;;;6.10;3.97;;;28.10;77.90;;;26.23;58.35;99901.41;12341518;23;96679;-88
2023/07/04 17:47:19;;;;;;;6.72;3.60;;;27.60;79.20;;;25.82;60.04;99913.22;12342926;23;96579;-87
2023/07/04 17:52:26;;;;;;;7.07;3.90;;;27.20;81.00;;;25.52;62.97;99910.53;12343815;23;96916;-88
2023/07/04 17:57:30;;;;;;;6.80;4.53;;;26.80;82.30;;;25.11;64.61;99905.06;12345937;23;96403;-87
2023/07/04 18:02:34;;;;;;;8.23;4.20;;;26.40;84.00;;;24.82;66.82;99916.41;12327437;23;96444;-88
2023/07/04 18:07:39;;;;;;;9.32;4.10;;;26.00;85.60;;;24.46;68.25;99928.25;12319272;23;96488;-87
2023/07/04 18:12:43;;;;;;;7.32;4.25;;;25.60;87.10;;;24.13;70.09;99924.84;12319741;23;96719;-87
2023/07/04 18:17:46;;;;;;;6.00;4.25;;;25.30;88.80;;;23.86;70.85;99933.09;12341594;23;96519;-87
2023/07/04 18:22:50;;;;;;;6.57;4.18;;;25.10;89.20;;;23.64;71.94;99937.84;12359796;23;96390;-87
2023/07/04 18:27:54;;;;;;;11.15;4.47;;;24.80;90.00;;;23.32;72.95;99937.81;12363943;23;96370;-86
2023/07/04 18:32:58;;;;;;;7.20;4.22;;;24.50;90.40;;;23.10;73.41;99952.25;12319534;23;96456;-87
2023/07/04 18:38:02;;;;;;;8.43;5.25;;;24.30;91.00;;;22.89;74.17;99953.94;12340833;23;97150;-87
2023/07/04 18:43:07;;;;;;;6.88;4.65;;;24.10;91.40;;;22.60;75.26;99953.28;12342098;23;96947;-87
2023/07/04 18:48:13;;;;;;;8.48;4.80;;;23.80;91.80;;;22.48;76.07;99973.44;12341924;23;96358;-88
2023/07/04 18:53:17;;;;;;;9.05;4.93;;;23.60;92.20;;;22.29;76.93;99975.63;12321367;23;96483;-87
2023/07/04 18:58:21;;;;;;;7.88;5.10;;;23.40;92.70;;;22.16;77.03;99983.06;12321065;23;96949;-87
2023/07/04 19:03:24;;;;;;;7.40;5.20;;;23.20;93.10;;;22.03;78.16;99980.66;12344938;23;96533;-87
2023/07/04 19:08:28;;;;;;;8.02;5.00;;;23.10;93.40;;;21.87;80.43;99995.03;12345313;23;97496;-88
2023/07/04 19:13:32;;;;;;;6.80;4.72;;;23.00;93.80;;;21.53;82.83;99989.63;12340528;23;96839;-87
2023/07/04 19:18:36;;;;;;;8.85;5.22;;;22.70;94.70;;;21.27;84.34;99991.03;12340910;23;97082;-87
2023/07/04 19:23:40;;;;;;;8.63;5.82;;;22.40;95.50;;;21.13;85.42;100021.31;12335151;23;96921;-87
2023/07/04 19:28:44;;;;;;;7.13;5.25;;;22.20;96.30;;;21.01;87.82;100019.47;12319794;23;97020;-87
2023/07/04 19:33:47;;;;;;;11.70;6.18;;;22.10;96.90;;;20.86;88.08;100024.53;12344503;23;96644;-87
2023/07/04 19:38:51;;;;;;;8.07;5.18;;;21.90;97.70;;;20.77;88.39;100037.63;12342480;23;96866;-87
2023/07/04 19:43:54;;;;;;;7.60;4.50;;;21.90;98.00;;;20.75;89.33;100042.44;12319611;23;96432;-88
2023/07/04 19:48:58;;;;;;;7.30;4.70;;;21.80;98.30;;;20.63;90.51;100038.09;12339349;23;96726;-87
2023/07/04 19:54:05;;;;;;;7.22;4.95;;;21.80;98.70;;;20.57;91.95;100056.91;12362174;23;96502;-87
2023/07/04 19:59:09;;;;;;;7.10;5.03;;;21.70;99.10;;;20.39;92.33;100057.03;12341227;23;97038;-87
2023/07/04 20:04:12;;;;;;;7.85;5.63;;;21.50;99.70;;;20.26;94.09;100059.94;12342596;23;96964;-87
2023/07/04 20:09:17;;;;;;;7.57;5.22;;;21.30;99.90;;;20.18;95.04;100053.03;12318741;23;96630;-87
2023/07/04 20:14:21;;;;;;;11.15;5.80;;;21.20;99.90;;;20.00;95.93;100051.25;12343955;23;96483;-87
2023/07/04 20:19:24;;;;;;;9.68;6.13;;;21.10;99.90;;;19.93;96.55;100057.81;12338342;23;97017;-88
2023/07/04 20:24:28;;;;;;;10.15;6.40;;;21.00;99.90;;;19.77;97.05;100062.00;12339855;23;97441;-88
2023/07/04 20:29:32;;;;;;;9.43;5.85;;;20.80;99.90;;;19.73;96.99;100058.97;12339060;23;96846;-88
2023/07/04 20:34:36;;;;;;;8.68;5.65;;;20.80;99.90;;;19.68;98.10;100055.31;12338781;23;97060;-88
2023/07/04 20:39:40;;;;;;;9.13;6.00;;;20.80;99.90;;;19.64;98.34;100064.91;12333906;23;96758;-88
2023/07/04 20:44:43;;;;;;;8.95;6.05;;;20.70;99.90;;;19.56;98.65;100049.84;12337570;23;97177;-88
2023/07/04 20:49:47;;;;;;;7.63;5.30;;;20.70;99.90;;;19.50;99.03;100059.69;12336339;23;96997;-89
2023/07/04 20:54:51;;;;;;;7.45;4.90;;;20.60;99.90;;;19.45;99.74;100064.13;12340747;23;97064;-88